sensor_id;sensor_type;location;lat;lon;timestamp;pressure;altitude;pressure_sealevel;temperature;humidity
6198;BME280;3132;42.622;23.328;2022-09-13T00:01:05;92678.72;;;13.94;81.76
6198;BME280;3132;42.622;23.328;2022-09-13T00:03:31;92674.28;;;13.81;82.16
6198;BME280;3132;42.622;23.328;2022-09-13T00:05:56;92673.03;;;13.79;82.28
6198;BME280;3132;42.622;23.328;2022-09-13T00:08:22;92676.41;;;13.79;82.64
6198;BME280;3132;42.622;23.328;2022-09-13T00:10:48;92672.25;;;13.78;82.36
6198;BME280;3132;42.622;23.328;2022-09-13T00:13:15;92669.53;;;13.83;82.42
6198;BME280;3132;42.622;23.328;2022-09-13T00:15:48;92667.97;;;13.82;82.98
6198;BME280;3132;42.622;23.328;2022-09-13T00:18:14;92674.72;;;13.97;82.75
6198;BME280;3132;42.622;23.328;2022-09-13T00:20:40;92667.16;;;13.95;82.58
6198;BME280;3132;42.622;23.328;2022-09-13T00:23:05;92656.06;;;13.98;82.53
6198;BME280;3132;42.622;23.328;2022-09-13T00:25:31;92660.09;;;14.04;82.34
6198;BME280;3132;42.622;23.328;2022-09-13T00:27:57;92647.47;;;14.06;82.23
6198;BME280;3132;42.622;23.328;2022-09-13T00:30:22;92644.16;;;14.01;82.57
6198;BME280;3132;42.622;23.328;2022-09-13T00:32:48;92655.03;;;14.08;82.24
6198;BME280;3132;42.622;23.328;2022-09-13T00:35:13;92645.78;;;14.10;81.93
6198;BME280;3132;42.622;23.328;2022-09-13T00:37:38;92650.03;;;14.20;81.63
6198;BME280;3132;42.622;23.328;2022-09-13T00:40:04;92649.09;;;14.16;81.94
6198;BME280;3132;42.622;23.328;2022-09-13T00:42:31;92647.22;;;14.16;81.77
6198;BME280;3132;42.622;23.328;2022-09-13T00:47:39;92648.19;;;14.20;81.59
6198;BME280;3132;42.622;23.328;2022-09-13T00:50:18;92642.34;;;14.23;81.25
6198;BME280;3132;42.622;23.328;2022-09-13T00:53:22;92635.72;;;14.26;81.18
6198;BME280;3132;42.622;23.328;2022-09-13T00:55:46;92635.59;;;14.31;80.97
6198;BME280;3132;42.622;23.328;2022-09-13T00:58:24;92621.94;;;14.20;80.69
6198;BME280;3132;42.622;23.328;2022-09-13T01:00:52;92634.56;;;14.18;80.71
6198;BME280;3132;42.622;23.328;2022-09-13T01:03:21;92627.78;;;14.17;81.22
6198;BME280;3132;42.622;23.328;2022-09-13T01:05:57;92640.31;;;14.20;80.68
6198;BME280;3132;42.622;23.328;2022-09-13T01:08:25;92626.00;;;14.26;80.36
6198;BME280;3132;42.622;23.328;2022-09-13T01:10:52;92643.84;;;14.38;80.78
6198;BME280;3132;42.622;23.328;2022-09-13T01:13:20;92642.28;;;14.37;80.44
6198;BME280;3132;42.622;23.328;2022-09-13T01:15:47;92636.09;;;14.33;80.62
6198;BME280;3132;42.622;23.328;2022-09-13T01:18:13;92632.34;;;14.25;80.84
6198;BME280;3132;42.622;23.328;2022-09-13T01:32:04;92636.22;;;14.28;81.35
6198;BME280;3132;42.622;23.328;2022-09-13T01:39:52;92632.56;;;14.37;81.19
6198;BME280;3132;42.622;23.328;2022-09-13T01:42:34;92623.25;;;14.31;81.11
6198;BME280;3132;42.622;23.328;2022-09-13T01:45:21;92621.41;;;14.32;80.76
6198;BME280;3132;42.622;23.328;2022-09-13T01:48:02;92602.94;;;14.23;80.40
6198;BME280;3132;42.622;23.328;2022-09-13T01:51:00;92625.88;;;14.31;80.55
6198;BME280;3132;42.622;23.328;2022-09-13T01:53:55;92620.97;;;14.16;81.08
6198;BME280;3132;42.622;23.328;2022-09-13T01:56:28;92610.13;;;14.09;81.35
6198;BME280;3132;42.622;23.328;2022-09-13T01:58:58;92613.63;;;14.05;81.81
6198;BME280;3132;42.622;23.328;2022-09-13T02:01:59;92622.66;;;14.12;81.63
6198;BME280;3132;42.622;23.328;2022-09-13T02:04:20;92608.91;;;14.15;81.59
6198;BME280;3132;42.622;23.328;2022-09-13T02:06:59;92601.53;;;13.95;81.50
6198;BME280;3132;42.622;23.328;2022-09-13T02:09:27;92623.13;;;14.14;81.89
6198;BME280;3132;42.622;23.328;2022-09-13T02:12:00;92616.44;;;14.08;81.89
6198;BME280;3132;42.622;23.328;2022-09-13T02:14:35;92614.13;;;14.07;82.04
6198;BME280;3132;42.622;23.328;2022-09-13T02:17:06;92602.97;;;14.01;82.10
6198;BME280;3132;42.622;23.328;2022-09-13T02:19:39;92607.97;;;13.89;82.22
6198;BME280;3132;42.622;23.328;2022-09-13T02:22:07;92609.81;;;13.89;82.33
6198;BME280;3132;42.622;23.328;2022-09-13T02:24:35;92614.25;;;14.02;82.28
6198;BME280;3132;42.622;23.328;2022-09-13T02:27:06;92611.66;;;13.88;82.64
6198;BME280;3132;42.622;23.328;2022-09-13T02:29:35;92610.00;;;13.92;82.52
6198;BME280;3132;42.622;23.328;2022-09-13T02:32:21;92611.78;;;13.83;82.85
6198;BME280;3132;42.622;23.328;2022-09-13T02:34:54;92608.31;;;13.74;82.87
6198;BME280;3132;42.622;23.328;2022-09-13T02:37:23;92608.19;;;13.79;82.96
6198;BME280;3132;42.622;23.328;2022-09-13T02:39:56;92621.91;;;13.76;83.10
6198;BME280;3132;42.622;23.328;2022-09-13T02:42:29;92621.06;;;13.67;83.05
6198;BME280;3132;42.622;23.328;2022-09-13T02:45:01;92622.91;;;13.67;83.30
6198;BME280;3132;42.622;23.328;2022-09-13T02:53:10;92624.28;;;13.64;83.55
6198;BME280;3132;42.622;23.328;2022-09-13T02:58:29;92615.59;;;13.55;83.10
6198;BME280;3132;42.622;23.328;2022-09-13T03:00:56;92624.00;;;13.66;83.22
6198;BME280;3132;42.622;23.328;2022-09-13T03:03:22;92629.28;;;13.74;82.07
6198;BME280;3132;42.622;23.328;2022-09-13T03:05:48;92619.63;;;13.61;81.82
6198;BME280;3132;42.622;23.328;2022-09-13T03:08:15;92615.00;;;13.58;82.49
6198;BME280;3132;42.622;23.328;2022-09-13T03:10:56;92633.41;;;13.67;82.01
6198;BME280;3132;42.622;23.328;2022-09-13T03:22:11;92629.06;;;13.62;80.72
6198;BME280;3132;42.622;23.328;2022-09-13T03:24:49;92630.38;;;13.73;79.68
6198;BME280;3132;42.622;23.328;2022-09-13T03:30:06;92624.03;;;13.74;79.98
6198;BME280;3132;42.622;23.328;2022-09-13T03:38:08;92626.63;;;13.66;79.41
6198;BME280;3132;42.622;23.328;2022-09-13T03:40:44;92628.34;;;13.70;79.77
6198;BME280;3132;42.622;23.328;2022-09-13T03:45:48;92618.44;;;13.67;78.60
6198;BME280;3132;42.622;23.328;2022-09-13T03:48:16;92628.13;;;13.80;78.20
6198;BME280;3132;42.622;23.328;2022-09-13T03:50:44;92630.88;;;13.75;78.50
6198;BME280;3132;42.622;23.328;2022-09-13T03:53:13;92632.75;;;13.61;78.85
6198;BME280;3132;42.622;23.328;2022-09-13T03:55:41;92616.16;;;13.52;77.97
6198;BME280;3132;42.622;23.328;2022-09-13T03:58:16;92626.22;;;13.59;77.82
6198;BME280;3132;42.622;23.328;2022-09-13T04:00:42;92616.28;;;13.47;77.81
6198;BME280;3132;42.622;23.328;2022-09-13T04:03:09;92629.09;;;13.49;78.49
6198;BME280;3132;42.622;23.328;2022-09-13T04:05:35;92636.56;;;13.42;78.80
6198;BME280;3132;42.622;23.328;2022-09-13T04:08:02;92629.00;;;13.40;79.32
6198;BME280;3132;42.622;23.328;2022-09-13T04:10:30;92640.09;;;13.37;78.64
6198;BME280;3132;42.622;23.328;2022-09-13T04:12:56;92630.09;;;13.39;79.84
6198;BME280;3132;42.622;23.328;2022-09-13T04:15:21;92623.00;;;13.40;80.04
6198;BME280;3132;42.622;23.328;2022-09-13T04:17:47;92627.47;;;13.39;79.07
6198;BME280;3132;42.622;23.328;2022-09-13T04:20:13;92623.06;;;13.48;78.73
6198;BME280;3132;42.622;23.328;2022-09-13T04:22:38;92627.06;;;13.46;78.76
6198;BME280;3132;42.622;23.328;2022-09-13T04:25:05;92628.41;;;13.43;77.88
6198;BME280;3132;42.622;23.328;2022-09-13T04:27:30;92623.16;;;13.43;78.87
6198;BME280;3132;42.622;23.328;2022-09-13T04:29:56;92626.38;;;13.40;78.36
6198;BME280;3132;42.622;23.328;2022-09-13T04:32:21;92634.63;;;13.47;77.69
6198;BME280;3132;42.622;23.328;2022-09-13T04:34:47;92629.28;;;13.39;76.54
6198;BME280;3132;42.622;23.328;2022-09-13T04:37:12;92641.56;;;13.65;76.48
6198;BME280;3132;42.622;23.328;2022-09-13T04:39:38;92614.13;;;13.49;76.21
6198;BME280;3132;42.622;23.328;2022-09-13T04:42:03;92643.59;;;13.68;76.33
6198;BME280;3132;42.622;23.328;2022-09-13T04:44:29;92641.22;;;13.58;75.64
6198;BME280;3132;42.622;23.328;2022-09-13T04:46:54;92651.47;;;13.68;74.74
6198;BME280;3132;42.622;23.328;2022-09-13T04:49:20;92650.28;;;13.74;74.61
6198;BME280;3132;42.622;23.328;2022-09-13T04:51:46;92652.41;;;13.86;74.23
6198;BME280;3132;42.622;23.328;2022-09-13T04:54:12;92654.72;;;13.87;74.05
6198;BME280;3132;42.622;23.328;2022-09-13T04:56:39;92645.56;;;13.98;73.66
6198;BME280;3132;42.622;23.328;2022-09-13T04:59:04;92640.13;;;13.95;73.63
6198;BME280;3132;42.622;23.328;2022-09-13T05:01:31;92643.22;;;13.97;73.75
6198;BME280;3132;42.622;23.328;2022-09-13T05:03:56;92658.91;;;14.10;73.81
6198;BME280;3132;42.622;23.328;2022-09-13T05:06:22;92645.75;;;14.02;73.60
6198;BME280;3132;42.622;23.328;2022-09-13T05:08:53;92657.13;;;14.19;74.28
6198;BME280;3132;42.622;23.328;2022-09-13T05:11:21;92660.34;;;14.16;72.87
6198;BME280;3132;42.622;23.328;2022-09-13T05:13:49;92649.97;;;14.33;72.33
6198;BME280;3132;42.622;23.328;2022-09-13T05:16:20;92639.00;;;14.54;72.23
6198;BME280;3132;42.622;23.328;2022-09-13T05:18:46;92657.88;;;14.95;71.27
6198;BME280;3132;42.622;23.328;2022-09-13T05:21:12;92640.56;;;14.94;70.62
6198;BME280;3132;42.622;23.328;2022-09-13T05:23:37;92658.00;;;15.29;70.03
6198;BME280;3132;42.622;23.328;2022-09-13T05:26:04;92660.25;;;15.44;68.63
6198;BME280;3132;42.622;23.328;2022-09-13T05:28:32;92671.13;;;15.68;68.33
6198;BME280;3132;42.622;23.328;2022-09-13T05:33:27;92615.38;;;15.66;67.44
6198;BME280;3132;42.622;23.328;2022-09-13T05:35:53;92652.38;;;15.69;66.53
6198;BME280;3132;42.622;23.328;2022-09-13T05:38:18;92666.31;;;15.53;67.27
6198;BME280;3132;42.622;23.328;2022-09-13T05:40:44;92652.84;;;15.63;67.20
6198;BME280;3132;42.622;23.328;2022-09-13T05:43:09;92665.06;;;15.11;67.55
6198;BME280;3132;42.622;23.328;2022-09-13T05:45:34;92666.03;;;15.24;67.92
6198;BME280;3132;42.622;23.328;2022-09-13T05:48:00;92663.28;;;15.37;67.22
6198;BME280;3132;42.622;23.328;2022-09-13T05:50:26;92640.19;;;15.26;66.83
6198;BME280;3132;42.622;23.328;2022-09-13T05:52:52;92675.41;;;15.47;67.15
6198;BME280;3132;42.622;23.328;2022-09-13T05:55:18;92664.03;;;15.29;67.26
6198;BME280;3132;42.622;23.328;2022-09-13T05:57:43;92668.63;;;15.63;66.56
6198;BME280;3132;42.622;23.328;2022-09-13T06:00:09;92661.38;;;15.21;67.82
6198;BME280;3132;42.622;23.328;2022-09-13T06:02:35;92667.91;;;15.32;67.17
6198;BME280;3132;42.622;23.328;2022-09-13T06:05:00;92669.22;;;15.43;67.11
6198;BME280;3132;42.622;23.328;2022-09-13T06:07:26;92669.59;;;15.28;67.65
6198;BME280;3132;42.622;23.328;2022-09-13T06:09:52;92672.50;;;15.18;68.28
6198;BME280;3132;42.622;23.328;2022-09-13T06:12:18;92679.16;;;15.15;67.62
6198;BME280;3132;42.622;23.328;2022-09-13T06:14:43;92677.31;;;15.24;68.13
6198;BME280;3132;42.622;23.328;2022-09-13T06:17:09;92673.78;;;15.29;67.91
6198;BME280;3132;42.622;23.328;2022-09-13T06:19:34;92681.91;;;15.49;67.12
6198;BME280;3132;42.622;23.328;2022-09-13T06:21:59;92652.41;;;15.22;66.14
6198;BME280;3132;42.622;23.328;2022-09-13T06:24:25;92678.06;;;15.47;67.26
6198;BME280;3132;42.622;23.328;2022-09-13T06:26:50;92676.22;;;15.56;65.83
6198;BME280;3132;42.622;23.328;2022-09-13T06:29:16;92686.28;;;15.62;67.59
6198;BME280;3132;42.622;23.328;2022-09-13T06:31:41;92691.66;;;15.49;66.41
6198;BME280;3132;42.622;23.328;2022-09-13T06:34:10;92684.91;;;15.65;66.60
6198;BME280;3132;42.622;23.328;2022-09-13T06:36:38;92690.91;;;15.57;67.44
6198;BME280;3132;42.622;23.328;2022-09-13T06:39:03;92696.72;;;16.10;65.38
6198;BME280;3132;42.622;23.328;2022-09-13T06:41:30;92693.91;;;15.89;65.97
6198;BME280;3132;42.622;23.328;2022-09-13T06:43:58;92701.34;;;15.87;65.84
6198;BME280;3132;42.622;23.328;2022-09-13T06:46:25;92694.66;;;15.73;67.13
6198;BME280;3132;42.622;23.328;2022-09-13T06:48:52;92708.16;;;15.88;67.53
6198;BME280;3132;42.622;23.328;2022-09-13T06:51:20;92694.53;;;16.21;66.45
6198;BME280;3132;42.622;23.328;2022-09-13T06:53:47;92708.97;;;16.15;66.25
6198;BME280;3132;42.622;23.328;2022-09-13T06:56:36;92715.94;;;16.11;65.84
6198;BME280;3132;42.622;23.328;2022-09-13T06:59:05;92704.31;;;16.37;65.95
6198;BME280;3132;42.622;23.328;2022-09-13T07:01:33;92697.47;;;16.19;63.89
6198;BME280;3132;42.622;23.328;2022-09-13T07:04:01;92725.84;;;16.14;65.59
6198;BME280;3132;42.622;23.328;2022-09-13T07:06:29;92708.34;;;16.26;64.59
6198;BME280;3132;42.622;23.328;2022-09-13T07:08:56;92717.78;;;16.27;65.94
6198;BME280;3132;42.622;23.328;2022-09-13T07:11:24;92728.03;;;16.03;65.59
6198;BME280;3132;42.622;23.328;2022-09-13T07:13:55;92719.50;;;16.15;64.23
6198;BME280;3132;42.622;23.328;2022-09-13T07:16:27;92720.44;;;16.27;65.47
6198;BME280;3132;42.622;23.328;2022-09-13T07:18:54;92728.22;;;16.49;64.34
6198;BME280;3132;42.622;23.328;2022-09-13T07:21:20;92734.41;;;16.45;63.86
6198;BME280;3132;42.622;23.328;2022-09-13T07:23:46;92730.81;;;16.32;64.85
6198;BME280;3132;42.622;23.328;2022-09-13T07:26:12;92728.34;;;16.61;65.51
6198;BME280;3132;42.622;23.328;2022-09-13T07:28:40;92738.88;;;16.78;62.65
6198;BME280;3132;42.622;23.328;2022-09-13T07:33:31;92728.47;;;16.73;63.96
6198;BME280;3132;42.622;23.328;2022-09-13T07:35:57;92738.97;;;17.07;62.68
6198;BME280;3132;42.622;23.328;2022-09-13T07:38:23;92724.94;;;16.61;63.31
6198;BME280;3132;42.622;23.328;2022-09-13T07:40:56;92729.63;;;16.47;63.67
6198;BME280;3132;42.622;23.328;2022-09-13T07:43:24;92741.81;;;16.08;65.01
6198;BME280;3132;42.622;23.328;2022-09-13T07:46:03;92737.75;;;16.11;64.25
6198;BME280;3132;42.622;23.328;2022-09-13T07:48:31;92739.19;;;16.17;64.56
6198;BME280;3132;42.622;23.328;2022-09-13T07:53:24;92748.63;;;16.95;58.52
6198;BME280;3132;42.622;23.328;2022-09-13T07:55:49;92748.91;;;17.56;58.34
6198;BME280;3132;42.622;23.328;2022-09-13T07:58:14;92734.25;;;17.30;58.70
6198;BME280;3132;42.622;23.328;2022-09-13T08:00:40;92746.63;;;17.46;58.50
6198;BME280;3132;42.622;23.328;2022-09-13T08:03:06;92752.22;;;17.45;57.77
6198;BME280;3132;42.622;23.328;2022-09-13T08:05:38;92761.50;;;17.59;56.67
6198;BME280;3132;42.622;23.328;2022-09-13T08:08:03;92747.38;;;17.85;56.63
6198;BME280;3132;42.622;23.328;2022-09-13T08:10:28;92739.63;;;17.50;56.56
6198;BME280;3132;42.622;23.328;2022-09-13T08:12:54;92759.81;;;17.46;55.83
6198;BME280;3132;42.622;23.328;2022-09-13T08:15:19;92755.31;;;17.47;56.26
6198;BME280;3132;42.622;23.328;2022-09-13T08:17:44;92746.13;;;17.62;56.16
6198;BME280;3132;42.622;23.328;2022-09-13T08:20:10;92755.03;;;17.78;56.20
6198;BME280;3132;42.622;23.328;2022-09-13T08:22:35;92750.91;;;17.05;55.94
6198;BME280;3132;42.622;23.328;2022-09-13T08:25:00;92747.25;;;16.80;58.38
6198;BME280;3132;42.622;23.328;2022-09-13T08:27:27;92748.63;;;16.86;57.62
6198;BME280;3132;42.622;23.328;2022-09-13T08:29:53;92747.59;;;17.25;56.99
6198;BME280;3132;42.622;23.328;2022-09-13T08:32:18;92744.16;;;17.41;54.94
6198;BME280;3132;42.622;23.328;2022-09-13T08:34:43;92739.25;;;17.23;55.69
6198;BME280;3132;42.622;23.328;2022-09-13T08:37:09;92739.50;;;17.47;55.54
6198;BME280;3132;42.622;23.328;2022-09-13T08:39:35;92742.06;;;18.14;55.13
6198;BME280;3132;42.622;23.328;2022-09-13T08:44:47;92739.56;;;18.17;54.09
6198;BME280;3132;42.622;23.328;2022-09-13T08:47:29;92754.84;;;18.41;53.50
6198;BME280;3132;42.622;23.328;2022-09-13T08:50:16;92743.28;;;18.98;51.03
6198;BME280;3132;42.622;23.328;2022-09-13T08:52:48;92743.53;;;18.52;50.33
6198;BME280;3132;42.622;23.328;2022-09-13T08:57:56;92737.81;;;18.21;48.35
6198;BME280;3132;42.622;23.328;2022-09-13T09:00:38;92732.16;;;18.11;50.21
6198;BME280;3132;42.622;23.328;2022-09-13T09:05:49;92743.72;;;18.27;49.61
6198;BME280;3132;42.622;23.328;2022-09-13T09:10:58;92747.03;;;18.15;49.64
6198;BME280;3132;42.622;23.328;2022-09-13T09:16:56;92730.75;;;18.75;48.03
6198;BME280;3132;42.622;23.328;2022-09-13T09:19:27;92743.88;;;18.83;48.22
6198;BME280;3132;42.622;23.328;2022-09-13T09:21:55;92741.53;;;19.35;45.43
6198;BME280;3132;42.622;23.328;2022-09-13T09:24:24;92738.34;;;19.30;43.55
6198;BME280;3132;42.622;23.328;2022-09-13T09:26:52;92726.88;;;19.05;44.44
6198;BME280;3132;42.622;23.328;2022-09-13T09:34:32;92729.75;;;19.00;45.65
6198;BME280;3132;42.622;23.328;2022-09-13T09:39:40;92716.19;;;19.01;46.26
6198;BME280;3132;42.622;23.328;2022-09-13T09:42:18;92727.56;;;18.49;47.67
6198;BME280;3132;42.622;23.328;2022-09-13T09:47:32;92709.94;;;18.53;46.46
6198;BME280;3132;42.622;23.328;2022-09-13T09:50:13;92714.28;;;18.08;45.19
6198;BME280;3132;42.622;23.328;2022-09-13T09:55:27;92715.00;;;18.78;46.36
6198;BME280;3132;42.622;23.328;2022-09-13T09:58:00;92710.56;;;19.15;44.15
6198;BME280;3132;42.622;23.328;2022-09-13T10:00:32;92707.66;;;18.96;44.12
6198;BME280;3132;42.622;23.328;2022-09-13T10:03:02;92707.41;;;19.22;43.91
6198;BME280;3132;42.622;23.328;2022-09-13T10:05:29;92690.31;;;19.19;42.56
6198;BME280;3132;42.622;23.328;2022-09-13T10:08:04;92696.38;;;18.75;45.12
6198;BME280;3132;42.622;23.328;2022-09-13T10:10:44;92693.06;;;19.23;44.28
6198;BME280;3132;42.622;23.328;2022-09-13T10:13:19;92692.69;;;19.00;44.72
6198;BME280;3132;42.622;23.328;2022-09-13T10:16:00;92686.28;;;18.89;45.21
6198;BME280;3132;42.622;23.328;2022-09-13T10:18:28;92687.56;;;18.83;45.21
6198;BME280;3132;42.622;23.328;2022-09-13T10:23:39;92683.41;;;18.94;44.81
6198;BME280;3132;42.622;23.328;2022-09-13T10:26:09;92678.34;;;18.89;44.37
6198;BME280;3132;42.622;23.328;2022-09-13T10:28:42;92683.50;;;18.85;43.84
6198;BME280;3132;42.622;23.328;2022-09-13T10:31:14;92686.56;;;18.75;45.33
6198;BME280;3132;42.622;23.328;2022-09-13T10:33:55;92681.38;;;18.79;44.42
6198;BME280;3132;42.622;23.328;2022-09-13T10:36:24;92679.31;;;18.84;44.89
6198;BME280;3132;42.622;23.328;2022-09-13T10:39:06;92671.47;;;18.88;43.84
6198;BME280;3132;42.622;23.328;2022-09-13T10:41:41;92669.75;;;19.16;43.67
6198;BME280;3132;42.622;23.328;2022-09-13T10:44:22;92670.53;;;19.16;43.08
6198;BME280;3132;42.622;23.328;2022-09-13T10:46:50;92671.22;;;19.26;42.94
6198;BME280;3132;42.622;23.328;2022-09-13T10:49:49;92674.44;;;19.19;44.23
6198;BME280;3132;42.622;23.328;2022-09-13T10:52:35;92645.91;;;18.92;42.94
6198;BME280;3132;42.622;23.328;2022-09-13T11:00:22;92663.84;;;19.19;43.29
6198;BME280;3132;42.622;23.328;2022-09-13T11:08:49;92657.47;;;19.32;44.62
6198;BME280;3132;42.622;23.328;2022-09-13T11:14:38;92664.84;;;19.87;43.20
6198;BME280;3132;42.622;23.328;2022-09-13T11:26:05;92652.84;;;19.53;42.11
6198;BME280;3132;42.622;23.328;2022-09-13T11:39:09;92631.44;;;19.46;40.33
6198;BME280;3132;42.622;23.328;2022-09-13T11:42:04;92635.06;;;19.42;40.42
6198;BME280;3132;42.622;23.328;2022-09-13T11:47:13;92630.59;;;19.94;40.79
6198;BME280;3132;42.622;23.328;2022-09-13T11:57:56;92632.09;;;19.43;40.50
6198;BME280;3132;42.622;23.328;2022-09-13T12:03:14;92625.94;;;19.91;40.71
6198;BME280;3132;42.622;23.328;2022-09-13T12:05:45;92637.81;;;19.81;41.99
6198;BME280;3132;42.622;23.328;2022-09-13T12:08:31;92637.56;;;19.86;42.44
6198;BME280;3132;42.622;23.328;2022-09-13T12:11:13;92636.47;;;19.87;40.32
6198;BME280;3132;42.622;23.328;2022-09-13T12:13:47;92639.72;;;20.08;41.18
6198;BME280;3132;42.622;23.328;2022-09-13T12:18:58;92615.72;;;19.77;40.01
6198;BME280;3132;42.622;23.328;2022-09-13T12:21:30;92645.72;;;19.93;40.05
6198;BME280;3132;42.622;23.328;2022-09-13T12:26:52;92634.31;;;20.05;40.25
6198;BME280;3132;42.622;23.328;2022-09-13T12:31:51;92613.97;;;20.21;40.33
6198;BME280;3132;42.622;23.328;2022-09-13T12:34:23;92624.13;;;20.31;41.58
6198;BME280;3132;42.622;23.328;2022-09-13T12:37:18;92627.34;;;20.12;39.42
6198;BME280;3132;42.622;23.328;2022-09-13T12:53:26;92616.00;;;19.48;42.14
6198;BME280;3132;42.622;23.328;2022-09-13T12:56:26;92618.41;;;19.65;42.16
6198;BME280;3132;42.622;23.328;2022-09-13T13:02:02;92629.66;;;19.62;42.05
6198;BME280;3132;42.622;23.328;2022-09-13T13:04:32;92623.88;;;19.72;42.89
6198;BME280;3132;42.622;23.328;2022-09-13T13:07:06;92634.28;;;19.65;42.44
6198;BME280;3132;42.622;23.328;2022-09-13T13:09:58;92619.72;;;19.71;42.56
6198;BME280;3132;42.622;23.328;2022-09-13T13:14:53;92633.03;;;19.87;43.67
6198;BME280;3132;42.622;23.328;2022-09-13T13:17:35;92631.16;;;19.87;42.50
6198;BME280;3132;42.622;23.328;2022-09-13T13:23:24;92630.34;;;20.11;41.07
6198;BME280;3132;42.622;23.328;2022-09-13T13:31:08;92615.31;;;20.42;42.42
6198;BME280;3132;42.622;23.328;2022-09-13T13:33:49;92635.69;;;20.38;41.95
6198;BME280;3132;42.622;23.328;2022-09-13T13:36:26;92627.22;;;19.69;42.43
6198;BME280;3132;42.622;23.328;2022-09-13T13:38:56;92631.66;;;19.53;43.38
6198;BME280;3132;42.622;23.328;2022-09-13T13:41:37;92623.03;;;19.68;41.78
6198;BME280;3132;42.622;23.328;2022-09-13T13:46:45;92617.06;;;19.47;42.25
6198;BME280;3132;42.622;23.328;2022-09-13T13:57:30;92647.91;;;19.07;44.74
6198;BME280;3132;42.622;23.328;2022-09-13T14:02:28;92634.72;;;18.62;47.05
6198;BME280;3132;42.622;23.328;2022-09-13T14:11:21;92640.56;;;19.25;45.91
6198;BME280;3132;42.622;23.328;2022-09-13T14:19:29;92631.22;;;19.39;44.81
6198;BME280;3132;42.622;23.328;2022-09-13T14:22:19;92651.50;;;19.59;44.58
6198;BME280;3132;42.622;23.328;2022-09-13T14:24:46;92645.34;;;19.67;44.11
6198;BME280;3132;42.622;23.328;2022-09-13T14:27:28;92652.81;;;19.77;44.15
6198;BME280;3132;42.622;23.328;2022-09-13T14:29:56;92654.94;;;19.48;42.89
6198;BME280;3132;42.622;23.328;2022-09-13T14:32:24;92649.94;;;19.22;42.81
6198;BME280;3132;42.622;23.328;2022-09-13T14:34:54;92653.28;;;18.86;43.98
6198;BME280;3132;42.622;23.328;2022-09-13T14:37:24;92664.75;;;18.78;44.31
6198;BME280;3132;42.622;23.328;2022-09-13T14:39:56;92641.81;;;18.82;44.62
6198;BME280;3132;42.622;23.328;2022-09-13T14:42:21;92651.25;;;19.16;44.29
6198;BME280;3132;42.622;23.328;2022-09-13T14:44:47;92653.47;;;19.26;44.36
6198;BME280;3132;42.622;23.328;2022-09-13T14:47:23;92647.06;;;19.27;44.29
6198;BME280;3132;42.622;23.328;2022-09-13T14:50:23;92658.56;;;19.43;44.64
6198;BME280;3132;42.622;23.328;2022-09-13T14:52:50;92626.78;;;19.19;43.92
6198;BME280;3132;42.622;23.328;2022-09-13T14:55:20;92644.00;;;19.37;45.16
6198;BME280;3132;42.622;23.328;2022-09-13T14:57:52;92636.72;;;19.46;43.22
6198;BME280;3132;42.622;23.328;2022-09-13T15:00:21;92647.31;;;19.46;45.08
6198;BME280;3132;42.622;23.328;2022-09-13T15:05:16;92660.09;;;19.44;44.16
6198;BME280;3132;42.622;23.328;2022-09-13T15:07:43;92643.78;;;19.30;45.43
6198;BME280;3132;42.622;23.328;2022-09-13T15:10:27;92664.06;;;19.26;45.13
6198;BME280;3132;42.622;23.328;2022-09-13T15:18:01;92670.56;;;18.72;45.42
6198;BME280;3132;42.622;23.328;2022-09-13T15:20:42;92668.13;;;18.67;46.19
6198;BME280;3132;42.622;23.328;2022-09-13T15:23:25;92671.81;;;18.54;46.45
6198;BME280;3132;42.622;23.328;2022-09-13T15:28:32;92660.53;;;18.45;46.82
6198;BME280;3132;42.622;23.328;2022-09-13T15:30:59;92656.06;;;18.37;47.95
6198;BME280;3132;42.622;23.328;2022-09-13T15:33:30;92645.31;;;18.21;47.44
6198;BME280;3132;42.622;23.328;2022-09-13T15:41:37;92649.28;;;17.74;48.53
6198;BME280;3132;42.622;23.328;2022-09-13T15:44:06;92651.94;;;17.66;49.17
6198;BME280;3132;42.622;23.328;2022-09-13T15:46:42;92651.63;;;17.67;49.67
6198;BME280;3132;42.622;23.328;2022-09-13T15:49:14;92656.13;;;17.46;49.40
6198;BME280;3132;42.622;23.328;2022-09-13T15:51:41;92647.94;;;17.30;49.59
6198;BME280;3132;42.622;23.328;2022-09-13T15:54:16;92657.19;;;17.45;49.74
6198;BME280;3132;42.622;23.328;2022-09-13T15:56:44;92669.78;;;17.39;49.14
6198;BME280;3132;42.622;23.328;2022-09-13T15:59:14;92671.06;;;17.33;48.26
6198;BME280;3132;42.622;23.328;2022-09-13T16:01:41;92672.97;;;17.24;48.51
6198;BME280;3132;42.622;23.328;2022-09-13T16:04:07;92633.97;;;16.92;49.23
6198;BME280;3132;42.622;23.328;2022-09-13T16:06:33;92684.75;;;17.18;49.58
6198;BME280;3132;42.622;23.328;2022-09-13T16:08:58;92682.31;;;17.13;48.55
6198;BME280;3132;42.622;23.328;2022-09-13T16:11:25;92679.88;;;17.00;48.54
6198;BME280;3132;42.622;23.328;2022-09-13T16:13:50;92668.72;;;16.94;49.22
6198;BME280;3132;42.622;23.328;2022-09-13T16:16:15;92677.69;;;17.02;49.14
6198;BME280;3132;42.622;23.328;2022-09-13T16:18:41;92673.53;;;16.92;49.59
6198;BME280;3132;42.622;23.328;2022-09-13T16:21:06;92669.50;;;16.86;48.78
6198;BME280;3132;42.622;23.328;2022-09-13T16:23:32;92663.59;;;16.89;48.46
6198;BME280;3132;42.622;23.328;2022-09-13T16:25:58;92663.34;;;16.82;49.07
6198;BME280;3132;42.622;23.328;2022-09-13T16:28:24;92663.50;;;16.77;49.19
6198;BME280;3132;42.622;23.328;2022-09-13T16:30:50;92663.34;;;16.82;49.19
6198;BME280;3132;42.622;23.328;2022-09-13T16:33:16;92665.03;;;16.78;48.56
6198;BME280;3132;42.622;23.328;2022-09-13T16:35:41;92673.56;;;16.75;49.43
6198;BME280;3132;42.622;23.328;2022-09-13T16:38:08;92672.66;;;16.71;50.31
6198;BME280;3132;42.622;23.328;2022-09-13T16:40:34;92662.44;;;16.61;50.39
6198;BME280;3132;42.622;23.328;2022-09-13T16:42:59;92673.16;;;16.65;50.13
6198;BME280;3132;42.622;23.328;2022-09-13T16:45:24;92648.97;;;16.46;50.75
6198;BME280;3132;42.622;23.328;2022-09-13T16:47:50;92670.50;;;16.56;50.93
6198;BME280;3132;42.622;23.328;2022-09-13T16:50:15;92676.09;;;16.55;52.22
6198;BME280;3132;42.622;23.328;2022-09-13T16:52:41;92683.25;;;16.54;51.71
6198;BME280;3132;42.622;23.328;2022-09-13T16:55:07;92689.44;;;16.58;51.96